Time;durP1;ratioP1;P1;durP2;ratioP2;P2;SDS_P1;SDS_P2;PMS_P1;PMS_P2;Temp;Humidity;BMP_temperature;BMP_pressure;BME280_temperature;BME280_humidity;BME280_pressure;Samples;Min_cycle;Max_cycle;Signal;HPM_P1;HPM_P2
2023/04/13 00:00:51;;;;;;;1.00;0.90;;;;;;;;;;5025924;28;20269;-82
2023/04/13 00:03:18;;;;;;;1.00;0.83;;;;;;;;;;5020934;28;20195;-81
2023/04/13 00:05:47;;;;;;;1.00;1.00;;;;;;;;;;5022811;28;20304;-79
2023/04/13 00:08:15;;;;;;;0.90;0.90;;;;;;;;;;5019297;28;20217;-78
2023/04/13 00:10:44;;;;;;;0.93;0.90;;;;;;;;;;5021689;28;20206;-80
2023/04/13 00:13:13;;;;;;;3.07;1.10;;;;;;;;;;5023373;28;20217;-80
2023/04/13 00:15:42;;;;;;;0.90;0.90;;;;;;;;;;5030210;28;23260;-78
2023/04/13 00:18:09;;;;;;;1.00;1.00;;;;;;;;;;5018916;28;20208;-80
2023/04/13 00:20:37;;;;;;;1.17;1.00;;;;;;;;;;5021321;28;20321;-80
2023/04/13 00:23:04;;;;;;;2.57;1.10;;;;;;;;;;5026718;28;20239;-81
2023/04/13 00:25:34;;;;;;;0.80;0.80;;;;;;;;;;4999681;28;20219;-79
2023/04/13 00:28:02;;;;;;;0.80;0.80;;;;;;;;;;5022706;28;20211;-80
2023/04/13 00:30:29;;;;;;;0.90;0.90;;;;;;;;;;5006720;28;20235;-80
2023/04/13 00:32:57;;;;;;;1.43;1.20;;;;;;;;;;5039253;28;20207;-79
2023/04/13 00:35:27;;;;;;;0.80;0.80;;;;;;;;;;5020302;28;20219;-80
2023/04/13 00:37:54;;;;;;;1.70;0.90;;;;;;;;;;5027332;28;20294;-80
2023/04/13 00:40:22;;;;;;;1.33;0.90;;;;;;;;;;5019793;28;20810;-80
2023/04/13 00:42:50;;;;;;;1.07;0.93;;;;;;;;;;5020059;28;20236;-80
2023/04/13 00:45:18;;;;;;;0.93;0.93;;;;;;;;;;5025460;28;20691;-81
2023/04/13 00:47:47;;;;;;;0.93;0.90;;;;;;;;;;5023419;28;20739;-79
2023/04/13 00:50:16;;;;;;;0.97;0.97;;;;;;;;;;5025145;28;20822;-80
2023/04/13 00:52:45;;;;;;;1.10;1.00;;;;;;;;;;5023654;28;20238;-81
2023/04/13 00:55:13;;;;;;;0.87;0.87;;;;;;;;;;5023987;28;20226;-80
2023/04/13 00:57:40;;;;;;;0.90;0.90;;;;;;;;;;5042609;28;20270;-78
2023/04/13 01:00:08;;;;;;;0.80;0.80;;;;;;;;;;5045077;28;20219;-75
2023/04/13 01:02:40;;;;;;;1.40;1.00;;;;;;;;;;5053710;28;20186;-78
2023/04/13 01:05:11;;;;;;;2.70;0.87;;;;;;;;;;5056370;28;20223;-79
2023/04/13 01:07:43;;;;;;;1.00;0.90;;;;;;;;;;5055958;28;20201;-80
2023/04/13 01:10:17;;;;;;;0.83;0.83;;;;;;;;;;5037047;28;20261;-76
2023/04/13 01:12:47;;;;;;;1.33;1.03;;;;;;;;;;5040296;28;20290;-78
2023/04/13 01:15:16;;;;;;;0.80;0.80;;;;;;;;;;5028097;28;20337;-78
2023/04/13 01:17:50;;;;;;;1.00;1.00;;;;;;;;;;5025433;28;20213;-79
2023/04/13 01:20:19;;;;;;;0.90;0.87;;;;;;;;;;5009654;28;20236;-81
2023/04/13 01:22:51;;;;;;;1.00;1.00;;;;;;;;;;5030612;28;20209;-78
2023/04/13 01:25:25;;;;;;;0.93;0.93;;;;;;;;;;5026104;28;20222;-79
2023/04/13 01:27:52;;;;;;;1.10;1.00;;;;;;;;;;5012193;28;20624;-78
2023/04/13 01:30:24;;;;;;;0.90;0.90;;;;;;;;;;5025411;28;20207;-78
2023/04/13 01:32:52;;;;;;;0.80;0.80;;;;;;;;;;5029377;28;20213;-80
2023/04/13 01:35:21;;;;;;;1.00;1.00;;;;;;;;;;5028459;28;20222;-79
2023/04/13 01:37:49;;;;;;;1.23;1.10;;;;;;;;;;5027337;28;20699;-81
2023/04/13 01:40:18;;;;;;;1.03;1.03;;;;;;;;;;5027823;28;20645;-80
2023/04/13 01:42:45;;;;;;;0.90;0.90;;;;;;;;;;5024629;28;20199;-79
2023/04/13 01:45:22;;;;;;;1.10;1.10;;;;;;;;;;5005971;28;20310;-78
2023/04/13 01:47:56;;;;;;;1.20;1.17;;;;;;;;;;5025812;28;20202;-79
2023/04/13 01:50:33;;;;;;;1.03;1.03;;;;;;;;;;5016509;28;20222;-79
2023/04/13 01:53:07;;;;;;;1.17;1.17;;;;;;;;;;5019723;28;20207;-78
2023/04/13 01:55:41;;;;;;;1.30;1.20;;;;;;;;;;5025008;28;20260;-77
2023/04/13 01:58:10;;;;;;;1.20;1.20;;;;;;;;;;5020366;28;20296;-78
2023/04/13 02:00:37;;;;;;;0.97;0.97;;;;;;;;;;5015787;28;21257;-79
2023/04/13 02:03:05;;;;;;;1.23;1.20;;;;;;;;;;5022851;28;20221;-78
2023/04/13 02:05:36;;;;;;;1.10;1.10;;;;;;;;;;5022232;28;21540;-79
2023/04/13 02:08:05;;;;;;;1.10;1.10;;;;;;;;;;5022773;28;20219;-79
2023/04/13 02:10:33;;;;;;;1.90;1.10;;;;;;;;;;5019499;28;20212;-79
2023/04/13 02:13:00;;;;;;;1.20;1.20;;;;;;;;;;5024090;28;20203;-79
2023/04/13 02:15:28;;;;;;;1.53;1.43;;;;;;;;;;5027738;28;20552;-77
2023/04/13 02:17:55;;;;;;;1.30;1.20;;;;;;;;;;5008351;28;20293;-79
2023/04/13 02:20:22;;;;;;;1.27;1.27;;;;;;;;;;5022581;28;20223;-80
2023/04/13 02:22:49;;;;;;;1.20;1.20;;;;;;;;;;5017629;28;22118;-80
2023/04/13 02:25:17;;;;;;;1.70;1.60;;;;;;;;;;5008928;28;20596;-80
2023/04/13 02:27:44;;;;;;;5.80;3.20;;;;;;;;;;5021437;28;21351;-78
2023/04/13 02:30:12;;;;;;;1.40;1.40;;;;;;;;;;5002498;28;20207;-79
2023/04/13 02:32:43;;;;;;;3.07;1.50;;;;;;;;;;5028684;28;20217;-79
2023/04/13 02:35:10;;;;;;;2.17;1.37;;;;;;;;;;5026079;28;20689;-79
2023/04/13 02:37:39;;;;;;;1.37;1.30;;;;;;;;;;5019081;28;20214;-79
2023/04/13 02:40:09;;;;;;;1.30;1.30;;;;;;;;;;5003932;28;20780;-79
2023/04/13 02:42:37;;;;;;;1.37;1.10;;;;;;;;;;5019847;28;20203;-80
2023/04/13 02:45:06;;;;;;;1.40;1.30;;;;;;;;;;5014107;28;20218;-78
2023/04/13 02:47:33;;;;;;;1.80;1.70;;;;;;;;;;5023989;28;20667;-80
2023/04/13 02:50:01;;;;;;;1.67;1.37;;;;;;;;;;5023203;28;20190;-77
2023/04/13 02:52:28;;;;;;;1.50;1.30;;;;;;;;;;5039864;28;20218;-78
2023/04/13 02:54:55;;;;;;;3.70;1.40;;;;;;;;;;5039387;28;20215;-78
2023/04/13 02:57:24;;;;;;;1.27;1.27;;;;;;;;;;5050253;28;20210;-77
2023/04/13 02:59:51;;;;;;;1.30;1.20;;;;;;;;;;5042015;28;20218;-77
2023/04/13 03:02:19;;;;;;;1.80;1.20;;;;;;;;;;5034176;28;20191;-80
2023/04/13 03:04:47;;;;;;;1.23;1.23;;;;;;;;;;5043771;28;20214;-78
2023/04/13 03:07:16;;;;;;;1.70;1.17;;;;;;;;;;5043286;28;20277;-79
2023/04/13 03:09:43;;;;;;;1.67;1.40;;;;;;;;;;5015069;28;20210;-80
2023/04/13 03:12:11;;;;;;;3.10;1.70;;;;;;;;;;5013592;28;20307;-81
2023/04/13 03:14:38;;;;;;;8.20;3.70;;;;;;;;;;5015860;28;20209;-80
2023/04/13 03:17:06;;;;;;;8.47;3.73;;;;;;;;;;5020522;28;20623;-81
2023/04/13 03:19:34;;;;;;;2.17;1.80;;;;;;;;;;5018094;28;20231;-79
2023/04/13 03:22:02;;;;;;;1.50;1.40;;;;;;;;;;5019458;28;20294;-78
2023/04/13 03:24:29;;;;;;;1.30;1.20;;;;;;;;;;5017664;28;21105;-80
2023/04/13 03:26:57;;;;;;;1.70;1.47;;;;;;;;;;5013203;28;20246;-80
2023/04/13 03:29:24;;;;;;;2.17;1.40;;;;;;;;;;5014469;28;20767;-82
2023/04/13 03:31:51;;;;;;;1.93;1.30;;;;;;;;;;5014806;28;20578;-81
2023/04/13 03:34:18;;;;;;;2.73;1.60;;;;;;;;;;5016905;28;20776;-80
2023/04/13 03:36:46;;;;;;;5.00;1.30;;;;;;;;;;5019659;28;20229;-80
2023/04/13 03:39:13;;;;;;;2.80;1.43;;;;;;;;;;5010081;28;20200;-80
2023/04/13 03:41:40;;;;;;;2.27;1.27;;;;;;;;;;5015648;28;20284;-82
2023/04/13 03:44:08;;;;;;;3.13;1.47;;;;;;;;;;5015733;28;20310;-81
2023/04/13 03:46:36;;;;;;;1.50;1.40;;;;;;;;;;5016505;28;20313;-79
2023/04/13 03:49:06;;;;;;;2.07;1.37;;;;;;;;;;5012811;28;20220;-81
2023/04/13 03:51:33;;;;;;;2.03;1.30;;;;;;;;;;5007528;28;20210;-79
2023/04/13 03:54:00;;;;;;;1.63;1.30;;;;;;;;;;5012429;28;23295;-80
2023/04/13 03:56:28;;;;;;;2.73;1.17;;;;;;;;;;5019156;28;21857;-81
2023/04/13 03:58:59;;;;;;;1.47;1.30;;;;;;;;;;5015540;28;20580;-80
2023/04/13 04:01:27;;;;;;;3.53;1.20;;;;;;;;;;5005721;28;20944;-81
2023/04/13 04:03:56;;;;;;;1.40;1.30;;;;;;;;;;4999333;28;20241;-79
2023/04/13 04:06:25;;;;;;;1.30;1.20;;;;;;;;;;5015120;28;20223;-79
2023/04/13 04:08:53;;;;;;;2.03;1.10;;;;;;;;;;5018751;28;21024;-76
2023/04/13 04:11:21;;;;;;;4.20;1.43;;;;;;;;;;5013835;28;20212;-78
2023/04/13 04:13:48;;;;;;;1.73;1.60;;;;;;;;;;5004777;28;20249;-78
2023/04/13 04:16:15;;;;;;;1.93;1.30;;;;;;;;;;5009975;28;20233;-80
2023/04/13 04:18:43;;;;;;;6.90;3.00;;;;;;;;;;5005227;28;20206;-81
2023/04/13 04:21:11;;;;;;;3.43;1.50;;;;;;;;;;5016886;28;20222;-78
2023/04/13 04:23:39;;;;;;;1.70;1.30;;;;;;;;;;5013931;28;20222;-79
2023/04/13 04:26:06;;;;;;;4.10;1.30;;;;;;;;;;5005005;28;21905;-77
2023/04/13 04:28:39;;;;;;;3.93;1.50;;;;;;;;;;5010987;28;20222;-77
2023/04/13 04:31:09;;;;;;;1.43;1.30;;;;;;;;;;5008448;28;20211;-79
2023/04/13 04:33:40;;;;;;;4.13;1.37;;;;;;;;;;5010567;28;21503;-79
2023/04/13 04:36:09;;;;;;;4.97;1.73;;;;;;;;;;5012777;28;20660;-78
2023/04/13 04:38:36;;;;;;;2.23;1.30;;;;;;;;;;5021633;28;20211;-77
2023/04/13 04:41:04;;;;;;;3.77;1.60;;;;;;;;;;5018987;28;20284;-80
2023/04/13 04:43:31;;;;;;;1.57;1.47;;;;;;;;;;5022977;28;20271;-79
2023/04/13 04:46:01;;;;;;;3.30;1.43;;;;;;;;;;5021337;28;20218;-81
2023/04/13 04:48:30;;;;;;;3.77;1.47;;;;;;;;;;5022202;28;20353;-79
2023/04/13 04:50:58;;;;;;;3.23;1.50;;;;;;;;;;5025589;28;20213;-82
2023/04/13 04:53:26;;;;;;;2.40;1.37;;;;;;;;;;5025236;28;20242;-77
2023/04/13 04:55:53;;;;;;;4.17;1.30;;;;;;;;;;5027715;28;20241;-79
2023/04/13 04:58:20;;;;;;;3.60;1.70;;;;;;;;;;5019993;28;20215;-77
2023/04/13 05:00:48;;;;;;;2.33;1.77;;;;;;;;;;5018734;28;20318;-79
2023/04/13 05:03:16;;;;;;;5.77;3.30;;;;;;;;;;5024154;28;20214;-79
2023/04/13 05:05:43;;;;;;;4.17;2.03;;;;;;;;;;5033580;28;20223;-75
2023/04/13 05:08:10;;;;;;;10.00;6.07;;;;;;;;;;5042951;28;20216;-77
2023/04/13 05:10:44;;;;;;;3.77;1.80;;;;;;;;;;5041563;28;20207;-79
2023/04/13 05:13:11;;;;;;;2.40;1.70;;;;;;;;;;5016945;28;20199;-73
2023/04/13 05:15:39;;;;;;;2.63;1.50;;;;;;;;;;5025205;28;20306;-76
2023/04/13 05:18:06;;;;;;;3.13;1.30;;;;;;;;;;5045189;28;20184;-76
2023/04/13 05:20:34;;;;;;;1.40;1.30;;;;;;;;;;5039562;28;20253;-77
2023/04/13 05:23:01;;;;;;;3.27;1.50;;;;;;;;;;5026967;28;20203;-77
2023/04/13 05:25:29;;;;;;;5.30;1.90;;;;;;;;;;5017583;28;20262;-80
2023/04/13 05:27:56;;;;;;;3.30;1.50;;;;;;;;;;5017518;28;20221;-82
2023/04/13 05:30:23;;;;;;;1.63;1.50;;;;;;;;;;5014461;28;20290;-82
2023/04/13 05:32:50;;;;;;;2.87;1.60;;;;;;;;;;5026245;28;20578;-82
2023/04/13 05:35:18;;;;;;;3.20;1.90;;;;;;;;;;5007505;28;20300;-79
2023/04/13 05:37:45;;;;;;;2.00;1.80;;;;;;;;;;5023498;28;20780;-80
2023/04/13 05:40:13;;;;;;;3.23;1.80;;;;;;;;;;5023501;28;20222;-82
2023/04/13 05:42:42;;;;;;;3.07;1.50;;;;;;;;;;5023605;28;20261;-77
2023/04/13 05:45:09;;;;;;;4.73;1.53;;;;;;;;;;5017146;28;20595;-83
2023/04/13 05:47:38;;;;;;;2.73;1.37;;;;;;;;;;5018603;28;20273;-83
2023/04/13 05:50:07;;;;;;;1.50;1.40;;;;;;;;;;5032893;28;20678;-78
2023/04/13 05:52:34;;;;;;;2.53;1.50;;;;;;;;;;5039862;28;20297;-74
2023/04/13 05:55:02;;;;;;;4.67;1.70;;;;;;;;;;5048993;28;20286;-79
2023/04/13 05:57:30;;;;;;;5.47;2.63;;;;;;;;;;5047782;28;20253;-77
2023/04/13 05:59:58;;;;;;;1.67;1.57;;;;;;;;;;5050512;28;20204;-77
2023/04/13 06:02:25;;;;;;;1.97;1.67;;;;;;;;;;5051555;28;20203;-78
2023/04/13 06:04:53;;;;;;;2.90;1.60;;;;;;;;;;5030585;28;20576;-82
2023/04/13 06:07:21;;;;;;;2.33;1.60;;;;;;;;;;5029849;28;20250;-81
2023/04/13 06:09:49;;;;;;;2.17;1.60;;;;;;;;;;5023240;28;20852;-83
2023/04/13 06:12:17;;;;;;;4.77;2.00;;;;;;;;;;5026120;28;20654;-78
2023/04/13 06:14:44;;;;;;;4.27;2.23;;;;;;;;;;5018896;28;20295;-85
2023/04/13 06:17:13;;;;;;;8.03;2.37;;;;;;;;;;5017660;28;20207;-80
2023/04/13 06:19:40;;;;;;;4.23;2.20;;;;;;;;;;5025813;28;20606;-81
2023/04/13 06:22:07;;;;;;;4.60;2.53;;;;;;;;;;5025154;28;20243;-82
2023/04/13 06:24:34;;;;;;;12.30;3.63;;;;;;;;;;5019427;28;20287;-81
2023/04/13 06:27:01;;;;;;;9.37;4.17;;;;;;;;;;5029238;28;20828;-78
2023/04/13 06:29:29;;;;;;;6.10;3.20;;;;;;;;;;5030338;28;20750;-76
2023/04/13 06:31:56;;;;;;;6.37;2.50;;;;;;;;;;5026310;28;20303;-82
2023/04/13 06:34:24;;;;;;;6.13;2.20;;;;;;;;;;5032081;28;20209;-82
2023/04/13 06:36:51;;;;;;;3.43;2.13;;;;;;;;;;5027862;28;20223;-80
2023/04/13 06:39:18;;;;;;;5.77;2.90;;;;;;;;;;5027733;28;20364;-78
2023/04/13 06:41:47;;;;;;;6.17;3.20;;;;;;;;;;5013403;28;20230;-81
2023/04/13 06:44:14;;;;;;;5.37;2.00;;;;;;;;;;5017323;28;20341;-79
2023/04/13 06:46:41;;;;;;;4.87;2.00;;;;;;;;;;5013231;28;20225;-81
2023/04/13 06:49:08;;;;;;;4.37;1.70;;;;;;;;;;5031995;28;20222;-84
2023/04/13 06:51:36;;;;;;;5.70;1.70;;;;;;;;;;5033364;28;20502;-80
2023/04/13 06:54:03;;;;;;;3.43;1.70;;;;;;;;;;5012078;28;20211;-82
2023/04/13 06:56:31;;;;;;;4.33;2.07;;;;;;;;;;5023121;28;20218;-84
2023/04/13 06:59:00;;;;;;;2.33;1.53;;;;;;;;;;5016001;28;20202;-80
2023/04/13 07:01:29;;;;;;;4.43;1.70;;;;;;;;;;5026389;28;20260;-83
2023/04/13 07:03:57;;;;;;;5.07;1.60;;;;;;;;;;5005412;28;20204;-81
2023/04/13 07:06:25;;;;;;;4.37;1.90;;;;;;;;;;5002627;28;20230;-80
2023/04/13 07:08:52;;;;;;;3.83;1.70;;;;;;;;;;4990021;28;20763;-74
2023/04/13 07:11:19;;;;;;;9.17;2.50;;;;;;;;;;5011114;28;20285;-84
2023/04/13 07:13:46;;;;;;;7.90;2.33;;;;;;;;;;5008573;28;20211;-83
2023/04/13 07:16:14;;;;;;;5.53;2.10;;;;;;;;;;5015097;28;20795;-82
2023/04/13 07:18:41;;;;;;;8.40;3.03;;;;;;;;;;5009635;28;20290;-80
2023/04/13 07:21:09;;;;;;;8.53;2.47;;;;;;;;;;5013665;28;20229;-83
2023/04/13 07:23:36;;;;;;;7.60;4.17;;;;;;;;;;5006092;28;20750;-82
2023/04/13 07:26:03;;;;;;;13.10;5.07;;;;;;;;;;5033814;22;20266;-80
2023/04/13 07:28:30;;;;;;;5.23;1.80;;;;;;;;;;5062739;28;20598;-79
2023/04/13 07:30:57;;;;;;;5.27;2.10;;;;;;;;;;5051629;28;20314;-81
2023/04/13 07:33:25;;;;;;;5.18;1.70;;;;;;;;;;5071673;28;20362;-79
2023/04/13 07:35:54;;;;;;;6.40;3.07;;;;;;;;;;5054697;28;20228;-81
2023/04/13 07:38:21;;;;;;;8.30;4.87;;;;;;;;;;5030540;28;20202;-83
2023/04/13 07:40:49;;;;;;;7.40;1.90;;;;;;;;;;5043914;28;20233;-82
2023/04/13 07:43:16;;;;;;;4.20;2.10;;;;;;;;;;5038992;28;20701;-83
2023/04/13 07:45:46;;;;;;;6.43;3.47;;;;;;;;;;5043725;28;20221;-82
2023/04/13 07:48:13;;;;;;;9.13;4.00;;;;;;;;;;5036676;28;20213;-76
2023/04/13 07:50:41;;;;;;;7.17;2.10;;;;;;;;;;5039220;28;20274;-80
2023/04/13 07:53:08;;;;;;;10.50;5.03;;;;;;;;;;5048464;28;20202;-81
2023/04/13 07:55:36;;;;;;;7.67;3.27;;;;;;;;;;5042856;28;20226;-79
2023/04/13 07:58:04;;;;;;;5.97;2.67;;;;;;;;;;5029856;28;20198;-77
2023/04/13 08:00:31;;;;;;;11.57;4.43;;;;;;;;;;5055830;28;20206;-75
2023/04/13 08:02:58;;;;;;;7.13;1.77;;;;;;;;;;5069741;28;20221;-80
2023/04/13 08:05:26;;;;;;;21.57;7.97;;;;;;;;;;5065777;28;20214;-75
2023/04/13 08:07:53;;;;;;;11.00;3.57;;;;;;;;;;5060874;28;20323;-76
2023/04/13 08:10:23;;;;;;;21.40;9.60;;;;;;;;;;5056374;28;20429;-79
2023/04/13 08:12:50;;;;;;;15.87;6.23;;;;;;;;;;5056666;28;20223;-76
2023/04/13 08:15:18;;;;;;;37.23;15.83;;;;;;;;;;5046494;28;20214;-78
2023/04/13 08:17:45;;;;;;;19.77;9.33;;;;;;;;;;5044512;28;20190;-79
2023/04/13 08:20:13;;;;;;;21.50;10.10;;;;;;;;;;5064140;28;20190;-77
2023/04/13 08:22:45;;;;;;;21.40;9.33;;;;;;;;;;5065589;28;20214;-78
2023/04/13 08:25:12;;;;;;;17.97;8.57;;;;;;;;;;5062866;28;20254;-78
2023/04/13 08:27:51;;;;;;;24.93;11.70;;;;;;;;;;5058145;28;20229;-76
2023/04/13 08:30:32;;;;;;;8.07;3.87;;;;;;;;;;5050914;28;20335;-76
2023/04/13 08:33:01;;;;;;;30.63;17.03;;;;;;;;;;5046296;22;20253;-65
2023/04/13 08:35:29;;;;;;;10.03;4.70;;;;;;;;;;5039966;28;20226;-64
2023/04/13 08:37:57;;;;;;;4.23;1.90;;;;;;;;;;5029378;28;20751;-65
2023/04/13 08:40:24;;;;;;;3.47;1.77;;;;;;;;;;5031504;28;20254;-64
2023/04/13 08:42:55;;;;;;;6.07;2.10;;;;;;;;;;5024817;28;20817;-64
2023/04/13 08:45:23;;;;;;;6.83;1.80;;;;;;;;;;5024567;28;20663;-65
2023/04/13 08:47:50;;;;;;;3.80;1.63;;;;;;;;;;5013559;28;20797;-65
2023/04/13 08:50:17;;;;;;;5.87;2.20;;;;;;;;;;5013775;28;20235;-65
2023/04/13 08:52:45;;;;;;;5.77;2.07;;;;;;;;;;5002847;28;20257;-65
2023/04/13 08:55:14;;;;;;;4.80;2.33;;;;;;;;;;5005917;28;20331;-65
2023/04/13 08:57:42;;;;;;;8.50;3.00;;;;;;;;;;5024386;28;20210;-64
2023/04/13 09:00:15;;;;;;;6.23;2.90;;;;;;;;;;5031900;28;20275;-64
2023/04/13 09:02:47;;;;;;;4.37;2.00;;;;;;;;;;5009681;28;20332;-64
2023/04/13 09:05:29;;;;;;;9.70;2.90;;;;;;;;;;5024727;28;20206;-65
2023/04/13 09:08:00;;;;;;;6.97;2.80;;;;;;;;;;5024344;28;20255;-64
2023/04/13 09:10:28;;;;;;;6.83;2.30;;;;;;;;;;5024927;28;20231;-65
2023/04/13 09:12:55;;;;;;;4.70;2.90;;;;;;;;;;5029764;28;20307;-64
2023/04/13 09:15:23;;;;;;;7.80;2.37;;;;;;;;;;5021138;28;20289;-64
2023/04/13 09:17:50;;;;;;;3.73;2.00;;;;;;;;;;5027364;28;20762;-65
2023/04/13 09:20:20;;;;;;;6.83;1.83;;;;;;;;;;5006376;28;21077;-64
2023/04/13 09:22:51;;;;;;;5.17;2.20;;;;;;;;;;5023810;28;20325;-64
2023/04/13 09:25:20;;;;;;;5.80;2.20;;;;;;;;;;5008095;28;20940;-64
2023/04/13 09:27:47;;;;;;;4.60;1.83;;;;;;;;;;5011377;28;20214;-64
2023/04/13 09:30:18;;;;;;;4.83;1.87;;;;;;;;;;5018946;28;20218;-65
2023/04/13 09:32:46;;;;;;;5.37;2.10;;;;;;;;;;5021639;28;20950;-64
2023/04/13 09:35:13;;;;;;;5.50;1.83;;;;;;;;;;5016351;28;20243;-64
2023/04/13 09:37:41;;;;;;;5.03;1.70;;;;;;;;;;5012886;28;20221;-64
2023/04/13 09:40:13;;;;;;;3.10;1.70;;;;;;;;;;5011913;28;20230;-64
2023/04/13 09:42:41;;;;;;;5.60;1.80;;;;;;;;;;5001438;28;20375;-65
2023/04/13 09:45:08;;;;;;;5.90;1.87;;;;;;;;;;4998440;28;20248;-65
2023/04/13 09:47:37;;;;;;;5.70;1.73;;;;;;;;;;5004080;28;20685;-63
2023/04/13 09:50:05;;;;;;;4.37;1.80;;;;;;;;;;5007654;28;20253;-63
2023/04/13 09:52:33;;;;;;;8.67;2.20;;;;;;;;;;4998363;28;20210;-63
2023/04/13 09:55:01;;;;;;;6.57;1.93;;;;;;;;;;5011206;28;20305;-63
2023/04/13 09:57:29;;;;;;;2.57;1.57;;;;;;;;;;4994688;28;20267;-63
2023/04/13 09:59:59;;;;;;;5.33;2.10;;;;;;;;;;4997681;28;20237;-64
2023/04/13 10:02:28;;;;;;;8.30;3.53;;;;;;;;;;4990292;28;20291;-64
2023/04/13 10:04:56;;;;;;;6.13;1.90;;;;;;;;;;4996193;28;20304;-64
2023/04/13 10:07:28;;;;;;;4.33;1.70;;;;;;;;;;4997166;28;20209;-65
2023/04/13 10:09:56;;;;;;;4.13;1.83;;;;;;;;;;5000414;28;20884;-65
2023/04/13 10:12:24;;;;;;;15.73;6.23;;;;;;;;;;5015074;28;20222;-64
2023/04/13 10:14:56;;;;;;;17.87;6.80;;;;;;;;;;5010831;28;20715;-66
2023/04/13 10:17:24;;;;;;;7.50;4.30;;;;;;;;;;5030478;28;20886;-65
2023/04/13 10:19:52;;;;;;;7.10;2.80;;;;;;;;;;5015848;28;20744;-65
2023/04/13 10:22:22;;;;;;;4.73;1.83;;;;;;;;;;5012810;28;20723;-65
2023/04/13 10:24:53;;;;;;;5.33;1.70;;;;;;;;;;5018075;28;20210;-65
2023/04/13 10:27:22;;;;;;;6.57;1.80;;;;;;;;;;5010810;28;23685;-65
2023/04/13 10:29:49;;;;;;;3.07;1.80;;;;;;;;;;5003578;28;20314;-66
2023/04/13 10:32:21;;;;;;;5.20;1.83;;;;;;;;;;5019444;28;20261;-65
2023/04/13 10:34:50;;;;;;;5.80;1.63;;;;;;;;;;5004261;28;20745;-65
2023/04/13 10:37:18;;;;;;;5.30;2.57;;;;;;;;;;5001065;28;21186;-64
2023/04/13 10:39:46;;;;;;;9.20;3.83;;;;;;;;;;5008481;28;20265;-63
2023/04/13 10:42:14;;;;;;;8.70;4.90;;;;;;;;;;5027603;28;20230;-64
2023/04/13 10:44:45;;;;;;;11.17;4.73;;;;;;;;;;5017091;28;20198;-64
2023/04/13 10:47:12;;;;;;;6.10;2.60;;;;;;;;;;5012268;28;20212;-66
2023/04/13 10:49:40;;;;;;;5.57;1.73;;;;;;;;;;5007327;28;20222;-64
2023/04/13 10:52:11;;;;;;;8.93;1.70;;;;;;;;;;5015988;28;20250;-64
2023/04/13 10:54:39;;;;;;;3.93;1.77;;;;;;;;;;5001238;28;20287;-64
2023/04/13 10:57:08;;;;;;;6.17;1.83;;;;;;;;;;5005021;28;20319;-64
2023/04/13 10:59:42;;;;;;;5.37;1.90;;;;;;;;;;4999032;28;20226;-64
2023/04/13 11:02:25;;;;;;;5.43;1.60;;;;;;;;;;5013591;28;20700;-64
2023/04/13 11:04:53;;;;;;;4.77;1.60;;;;;;;;;;4998157;28;20574;-64
2023/04/13 11:07:22;;;;;;;5.57;2.03;;;;;;;;;;5006702;28;20214;-64
2023/04/13 11:09:49;;;;;;;3.80;1.73;;;;;;;;;;5011079;28;20234;-64
2023/04/13 11:12:18;;;;;;;2.63;1.60;;;;;;;;;;5016003;28;20620;-64
2023/04/13 11:14:49;;;;;;;3.73;1.50;;;;;;;;;;5011406;28;20750;-64
2023/04/13 11:17:17;;;;;;;7.73;3.07;;;;;;;;;;5014929;28;20310;-64
2023/04/13 11:19:49;;;;;;;20.73;10.43;;;;;;;;;;5001653;28;20233;-64
2023/04/13 11:22:18;;;;;;;4.83;1.83;;;;;;;;;;5007863;28;20725;-64
2023/04/13 11:24:46;;;;;;;19.67;11.13;;;;;;;;;;5008701;28;20328;-64
2023/04/13 11:27:17;;;;;;;11.63;6.17;;;;;;;;;;5005121;28;20293;-64
2023/04/13 11:29:56;;;;;;;8.60;3.63;;;;;;;;;;4998472;28;20954;-64
2023/04/13 11:32:24;;;;;;;4.93;1.80;;;;;;;;;;4995116;28;20224;-64
2023/04/13 11:34:52;;;;;;;4.87;1.77;;;;;;;;;;4996973;28;20221;-63
2023/04/13 11:37:20;;;;;;;3.40;1.80;;;;;;;;;;4984827;28;20214;-64
2023/04/13 11:39:49;;;;;;;2.50;1.10;;;;;;;;;;4990931;28;22540;-63
2023/04/13 11:42:16;;;;;;;2.37;1.40;;;;;;;;;;5012745;28;20321;-64
2023/04/13 11:44:45;;;;;;;3.63;1.60;;;;;;;;;;4996908;28;20247;-65
2023/04/13 11:47:16;;;;;;;5.43;2.27;;;;;;;;;;4999581;28;20295;-64
2023/04/13 11:49:46;;;;;;;9.70;8.33;;;;;;;;;;4999886;28;20309;-64
2023/04/13 11:52:15;;;;;;;3.37;1.40;;;;;;;;;;5021777;28;20232;-63
2023/04/13 11:54:43;;;;;;;2.20;1.70;;;;;;;;;;5019283;28;20213;-63
2023/04/13 11:57:11;;;;;;;3.37;1.40;;;;;;;;;;5008943;28;20217;-63
2023/04/13 11:59:38;;;;;;;4.47;1.70;;;;;;;;;;5016869;28;20248;-63
2023/04/13 12:02:06;;;;;;;3.93;2.03;;;;;;;;;;5017178;28;20353;-64
2023/04/13 12:04:48;;;;;;;4.37;2.33;;;;;;;;;;5017524;28;20672;-63
2023/04/13 12:07:20;;;;;;;19.30;8.93;;;;;;;;;;5019144;28;20260;-64
2023/04/13 12:09:56;;;;;;;4.87;1.60;;;;;;;;;;5021051;28;20226;-63
2023/04/13 12:12:31;;;;;;;3.83;2.17;;;;;;;;;;5022299;28;20206;-63
2023/04/13 12:15:23;;;;;;;4.20;1.60;;;;;;;;;;5027394;28;20213;-63
2023/04/13 12:18:12;;;;;;;3.00;1.60;;;;;;;;;;5022470;28;20242;-62
2023/04/13 12:20:45;;;;;;;4.07;1.57;;;;;;;;;;5025747;28;20230;-63
2023/04/13 12:23:17;;;;;;;5.17;1.50;;;;;;;;;;5024439;28;20259;-62
2023/04/13 12:26:07;;;;;;;5.07;1.80;;;;;;;;;;5022242;28;20683;-65
2023/04/13 12:28:58;;;;;;;4.90;1.60;;;;;;;;;;5026806;28;20206;-65
2023/04/13 12:31:32;;;;;;;3.03;1.33;;;;;;;;;;5026662;28;20584;-64
2023/04/13 12:33:59;;;;;;;3.30;1.20;;;;;;;;;;5030812;28;20305;-64
2023/04/13 12:36:30;;;;;;;2.97;1.20;;;;;;;;;;5025842;28;20234;-64
2023/04/13 12:38:58;;;;;;;2.67;1.40;;;;;;;;;;5026227;28;20230;-64
2023/04/13 12:41:26;;;;;;;5.90;1.80;;;;;;;;;;5021339;28;20636;-64
2023/04/13 12:43:53;;;;;;;4.67;2.00;;;;;;;;;;5030853;28;20309;-64
2023/04/13 12:46:20;;;;;;;3.97;1.57;;;;;;;;;;5021896;28;20248;-64
2023/04/13 12:48:48;;;;;;;3.27;1.43;;;;;;;;;;5030760;28;20203;-62
2023/04/13 12:51:15;;;;;;;6.30;3.43;;;;;;;;;;5034346;28;20211;-62
2023/04/13 12:53:42;;;;;;;5.33;1.57;;;;;;;;;;5024335;28;20237;-64
2023/04/13 12:56:10;;;;;;;4.27;1.90;;;;;;;;;;5024429;28;20215;-62
2023/04/13 12:58:37;;;;;;;5.17;1.70;;;;;;;;;;5040246;28;20210;-64
2023/04/13 13:01:05;;;;;;;3.33;1.53;;;;;;;;;;5014095;28;20283;-64
2023/04/13 13:03:35;;;;;;;2.37;1.33;;;;;;;;;;5030374;28;20781;-64
2023/04/13 13:06:04;;;;;;;2.17;1.50;;;;;;;;;;5025550;28;20648;-64
2023/04/13 13:08:31;;;;;;;3.13;1.40;;;;;;;;;;5037806;28;20202;-64
2023/04/13 13:11:03;;;;;;;2.77;1.43;;;;;;;;;;5021730;28;20289;-64
2023/04/13 13:13:31;;;;;;;1.40;1.10;;;;;;;;;;5028674;28;20298;-64
2023/04/13 13:15:58;;;;;;;2.77;1.40;;;;;;;;;;5018455;28;20242;-63
2023/04/13 13:18:25;;;;;;;1.80;1.20;;;;;;;;;;5017391;28;21155;-63
2023/04/13 13:21:04;;;;;;;3.87;1.60;;;;;;;;;;5037271;28;20210;-65
2023/04/13 13:23:32;;;;;;;4.17;1.80;;;;;;;;;;5020501;28;20710;-63
2023/04/13 13:25:59;;;;;;;4.30;1.83;;;;;;;;;;5027831;28;20226;-63
2023/04/13 13:28:46;;;;;;;3.97;1.70;;;;;;;;;;5030371;28;20293;-62
2023/04/13 13:31:14;;;;;;;5.53;2.43;;;;;;;;;;5023041;28;20207;-64
2023/04/13 13:33:42;;;;;;;4.23;2.93;;;;;;;;;;5019716;28;20607;-63
2023/04/13 13:36:10;;;;;;;6.37;2.00;;;;;;;;;;5027703;28;20206;-64
2023/04/13 13:38:37;;;;;;;6.83;1.87;;;;;;;;;;5023220;28;20242;-64
2023/04/13 13:41:05;;;;;;;4.97;1.87;;;;;;;;;;5024187;28;20355;-64
2023/04/13 13:43:32;;;;;;;5.27;2.30;;;;;;;;;;5025501;28;20324;-64
2023/04/13 13:45:59;;;;;;;5.00;3.07;;;;;;;;;;5024614;28;20224;-64
2023/04/13 13:48:27;;;;;;;5.53;2.20;;;;;;;;;;5024095;28;20199;-64
2023/04/13 13:50:54;;;;;;;3.43;2.03;;;;;;;;;;5029133;28;20226;-65
2023/04/13 13:53:22;;;;;;;4.70;1.80;;;;;;;;;;5019574;28;20210;-64
2023/04/13 13:55:49;;;;;;;5.60;2.47;;;;;;;;;;5024748;28;20301;-64
2023/04/13 13:58:17;;;;;;;4.67;2.60;;;;;;;;;;5022100;28;20210;-63
2023/04/13 14:00:44;;;;;;;4.83;2.13;;;;;;;;;;5039839;28;20226;-64
2023/04/13 14:03:15;;;;;;;10.07;3.43;;;;;;;;;;5026520;28;20265;-63
2023/04/13 14:05:43;;;;;;;6.40;3.80;;;;;;;;;;5020717;28;20206;-63
2023/04/13 14:08:10;;;;;;;5.43;1.80;;;;;;;;;;5028516;28;20202;-64
2023/04/13 14:10:38;;;;;;;6.53;2.30;;;;;;;;;;5014962;28;20815;-63
2023/04/13 14:13:05;;;;;;;2.50;1.60;;;;;;;;;;5016119;28;20210;-63
2023/04/13 14:15:32;;;;;;;4.10;2.30;;;;;;;;;;5038677;28;20559;-64
2023/04/13 14:18:00;;;;;;;2.60;1.70;;;;;;;;;;5019128;28;20221;-64
2023/04/13 14:20:38;;;;;;;3.60;1.50;;;;;;;;;;5026470;28;21016;-63
2023/04/13 14:23:07;;;;;;;1.50;1.30;;;;;;;;;;5040763;28;20237;-66
2023/04/13 14:25:36;;;;;;;1.33;1.13;;;;;;;;;;5020884;28;20288;-64
2023/04/13 14:28:03;;;;;;;2.07;1.30;;;;;;;;;;5009574;28;20583;-64
2023/04/13 14:30:31;;;;;;;2.73;1.37;;;;;;;;;;5010510;28;20227;-65
2023/04/13 14:32:58;;;;;;;3.27;1.60;;;;;;;;;;5016983;28;20305;-63
2023/04/13 14:35:25;;;;;;;2.60;1.20;;;;;;;;;;5024663;28;20578;-65
2023/04/13 14:37:53;;;;;;;2.33;1.43;;;;;;;;;;5032486;28;20264;-65
2023/04/13 14:40:21;;;;;;;1.30;1.20;;;;;;;;;;5032766;28;20276;-65
2023/04/13 14:42:52;;;;;;;1.23;1.17;;;;;;;;;;5028295;28;20699;-64
2023/04/13 20:19:32;;;;;;;3.57;2.97;;;;;;;;;;1480568;26;20213;-73
2023/04/13 20:22:01;;;;;;;4.30;3.67;;;;;;;;;;5069020;28;20233;-72
2023/04/13 20:24:29;;;;;;;2.90;2.70;;;;;;;;;;5069028;28;20221;-72